Time;durP1;ratioP1;P1;durP2;ratioP2;P2;SDS_P1;SDS_P2;PMS_P1;PMS_P2;Temp;Humidity;BMP_temperature;BMP_pressure;BME280_temperature;BME280_humidity;BME280_pressure;Samples;Min_cycle;Max_cycle;Signal;HPM_P1;HPM_P2
2022/06/08 00:00:17;;;;;;;14.05;12.32;;;18.00;82.00;;;;;;5027450;28;20025;-81
2022/06/08 00:02:45;;;;;;;14.23;12.57;;;17.90;82.30;;;;;;5028155;28;20037;-81
2022/06/08 00:05:11;;;;;;;15.43;11.70;;;18.00;82.50;;;;;;5050290;28;20025;-81
2022/06/08 00:07:37;;;;;;;17.88;12.00;;;18.00;82.60;;;;;;5050269;28;20026;-81
2022/06/08 00:10:04;;;;;;;16.27;11.93;;;18.00;82.40;;;;;;5051141;28;20029;-81
2022/06/08 00:12:30;;;;;;;22.52;11.80;;;18.00;82.40;;;;;;5050129;28;20037;-81
2022/06/08 00:14:56;;;;;;;21.50;12.40;;;18.10;82.10;;;;;;5043849;28;20044;-81
2022/06/08 00:17:22;;;;;;;15.55;12.73;;;18.10;81.70;;;;;;5043820;28;20044;-80
2022/06/08 00:19:49;;;;;;;17.13;12.60;;;18.20;81.20;;;;;;5028573;28;20044;-81
2022/06/08 00:22:15;;;;;;;16.77;12.40;;;18.10;81.80;;;;;;5049213;28;20041;-81
2022/06/08 00:24:41;;;;;;;19.75;12.20;;;18.10;82.20;;;;;;5051448;28;20060;-80
2022/06/08 00:27:08;;;;;;;21.90;12.68;;;18.20;82.50;;;;;;5044358;28;20056;-80
2022/06/08 00:29:35;;;;;;;19.92;13.45;;;18.20;81.70;;;;;;5049645;28;20032;-81
2022/06/08 00:32:01;;;;;;;17.77;12.75;;;18.20;81.40;;;;;;5032844;28;20029;-81
2022/06/08 00:34:27;;;;;;;18.95;12.15;;;18.30;81.50;;;;;;5048463;28;20037;-81
2022/06/08 00:36:53;;;;;;;19.10;12.75;;;18.20;81.80;;;;;;5015457;28;20046;-81
2022/06/08 00:39:19;;;;;;;13.27;12.05;;;18.30;81.80;;;;;;5051542;28;20025;-81
2022/06/08 00:41:52;;;;;;;17.40;13.07;;;18.20;82.20;;;;;;5043716;28;20395;-81
2022/06/08 00:44:24;;;;;;;16.73;12.80;;;18.20;82.40;;;;;;5027427;28;20497;-81
2022/06/08 00:46:51;;;;;;;18.02;12.10;;;18.30;82.20;;;;;;5027731;28;20037;-81
2022/06/08 00:49:21;;;;;;;23.08;12.15;;;18.10;82.90;;;;;;5048492;28;20376;-81
2022/06/08 00:51:47;;;;;;;22.08;12.65;;;18.10;83.40;;;;;;5051453;28;20036;-81
2022/06/08 00:54:18;;;;;;;15.82;12.50;;;18.10;82.70;;;;;;5048946;28;20384;-81
2022/06/08 00:56:50;;;;;;;14.27;12.02;;;18.20;82.50;;;;;;5027262;28;20402;-81
2022/06/08 00:59:16;;;;;;;16.30;12.35;;;18.20;82.70;;;;;;5049017;28;20040;-81
2022/06/08 01:01:42;;;;;;;15.25;12.15;;;18.30;82.30;;;;;;5047464;28;20037;-82
2022/06/08 01:04:10;;;;;;;19.95;12.07;;;18.30;82.40;;;;;;5051057;28;20083;-82
2022/06/08 01:06:36;;;;;;;13.70;12.02;;;18.10;83.00;;;;;;5051130;28;20021;-82
2022/06/08 01:09:02;;;;;;;13.85;11.55;;;18.10;83.30;;;;;;5050570;28;20047;-82
2022/06/08 01:11:41;;;;;;;15.82;11.95;;;18.20;82.80;;;;;;5026488;28;20044;-82
2022/06/08 01:14:10;;;;;;;14.80;11.77;;;18.30;82.40;;;;;;5026755;28;20033;-82
2022/06/08 01:16:37;;;;;;;13.38;12.07;;;18.20;82.70;;;;;;5015645;28;20413;-83
2022/06/08 01:19:03;;;;;;;16.55;12.27;;;18.20;83.10;;;;;;5016949;28;20399;-83
2022/06/08 01:21:29;;;;;;;15.90;12.02;;;18.10;83.20;;;;;;5050724;28;20029;-83
2022/06/08 01:23:59;;;;;;;13.32;12.02;;;18.10;83.70;;;;;;5049633;28;20056;-83
2022/06/08 01:26:47;;;;;;;20.15;12.23;;;18.00;84.30;;;;;;5042750;28;20033;-83
2022/06/08 01:29:23;;;;;;;15.25;11.43;;;17.90;84.40;;;;;;5034942;28;20502;-83
2022/06/08 01:32:02;;;;;;;12.27;11.05;;;17.90;84.50;;;;;;5046749;28;20037;-83
2022/06/08 01:35:06;;;;;;;13.38;10.73;;;18.00;84.20;;;;;;5032485;28;20160;-83
2022/06/08 01:37:38;;;;;;;15.07;11.13;;;18.10;83.70;;;;;;5034281;28;20029;-83
2022/06/08 01:40:31;;;;;;;12.45;10.85;;;18.10;83.40;;;;;;5050722;28;20032;-83
2022/06/08 01:43:06;;;;;;;12.70;10.95;;;18.10;83.60;;;;;;5051097;28;20044;-83
2022/06/08 01:45:38;;;;;;;12.65;10.80;;;18.10;83.40;;;;;;5050008;28;20491;-83
2022/06/08 01:48:04;;;;;;;14.60;10.98;;;18.00;83.90;;;;;;5049616;28;20041;-83
2022/06/08 01:50:39;;;;;;;11.63;10.50;;;18.00;83.90;;;;;;5049516;28;20048;-83
2022/06/08 01:53:39;;;;;;;11.80;10.60;;;18.10;83.90;;;;;;5048102;28;20025;-83
2022/06/08 01:56:23;;;;;;;11.07;10.07;;;18.00;84.00;;;;;;4969972;28;20517;-83
2022/06/08 01:58:57;;;;;;;10.18;9.38;;;17.90;84.40;;;;;;4954210;28;20046;-83
2022/06/08 02:01:41;;;;;;;10.32;9.50;;;17.80;85.00;;;;;;4971050;28;20041;-83
2022/06/08 02:04:37;;;;;;;10.70;9.80;;;17.90;85.40;;;;;;4971159;28;20062;-82
2022/06/08 02:07:15;;;;;;;10.30;9.38;;;17.80;85.50;;;;;;4952026;28;20042;-82
2022/06/08 02:09:46;;;;;;;10.65;9.38;;;17.90;85.00;;;;;;4988712;28;20031;-83
2022/06/08 02:12:13;;;;;;;10.20;9.35;;;17.90;84.90;;;;;;4965689;28;20047;-83
2022/06/08 02:14:47;;;;;;;10.32;9.52;;;17.90;85.40;;;;;;4953978;28;20058;-83
2022/06/08 02:17:38;;;;;;;10.25;9.27;;;17.90;85.50;;;;;;4937974;28;20405;-83
2022/06/08 02:20:26;;;;;;;9.43;8.52;;;17.90;85.40;;;;;;4968306;28;20119;-83
2022/06/08 02:22:56;;;;;;;9.85;9.15;;;17.90;85.60;;;;;;4938750;28;20050;-84
2022/06/08 02:25:36;;;;;;;10.25;9.40;;;17.80;85.70;;;;;;4938382;28;20043;-83
2022/06/08 02:28:06;;;;;;;9.63;9.03;;;17.80;85.70;;;;;;4988388;28;20042;-84
2022/06/08 02:30:36;;;;;;;10.52;9.68;;;17.80;86.30;;;;;;4950331;28;20535;-84
2022/06/08 02:35:54;;;;;;;10.65;9.52;;;17.70;86.40;;;;;;5043079;28;20036;-84
2022/06/08 02:38:22;;;;;;;11.18;10.38;;;17.70;86.80;;;;;;5028085;28;20052;-85
2022/06/08 02:40:51;;;;;;;11.98;11.07;;;17.70;87.00;;;;;;5029663;28;20028;-85
2022/06/08 02:43:30;;;;;;;11.57;10.88;;;17.70;87.40;;;;;;5030667;28;20472;-85
2022/06/08 02:46:17;;;;;;;12.07;11.27;;;17.70;87.30;;;;;;5045196;28;20484;-85
2022/06/08 02:48:43;;;;;;;11.98;11.13;;;17.70;87.40;;;;;;5049082;28;20040;-86
2022/06/08 02:51:12;;;;;;;12.90;11.98;;;17.60;87.60;;;;;;5041582;28;20379;-85
2022/06/08 02:53:52;;;;;;;13.75;12.85;;;17.60;87.50;;;;;;5024979;28;20096;-84
2022/06/08 02:56:51;;;;;;;12.95;12.05;;;17.70;87.30;;;;;;5041415;28;20032;-84
2022/06/08 02:59:23;;;;;;;12.15;11.40;;;17.70;87.50;;;;;;5018643;28;20036;-84
2022/06/08 03:02:17;;;;;;;13.52;12.32;;;17.60;87.90;;;;;;5046869;28;20033;-84
2022/06/08 03:05:08;;;;;;;12.82;12.07;;;17.60;87.90;;;;;;5029583;28;20053;-84
2022/06/08 03:07:37;;;;;;;12.48;11.77;;;17.60;88.30;;;;;;5031648;28;20021;-84
2022/06/08 03:10:06;;;;;;;12.68;11.88;;;17.60;88.60;;;;;;5048086;28;20391;-84
2022/06/08 03:12:37;;;;;;;11.23;10.38;;;17.60;88.70;;;;;;5030495;28;20040;-84
2022/06/08 03:15:04;;;;;;;;;;;17.60;89.00;;;;;;5024957;28;20045;-84
2022/06/08 03:17:31;;;;;;;11.00;10.40;;;17.60;88.80;;;;;;5043744;28;19912;-84
2022/06/08 03:19:58;;;;;;;12.45;11.63;;;17.60;88.70;;;;;;5045289;28;20045;-84
2022/06/08 03:22:24;;;;;;;11.45;10.85;;;17.70;89.10;;;;;;5049490;28;20041;-84
2022/06/08 03:24:50;;;;;;;11.93;11.23;;;17.70;89.20;;;;;;5053556;28;20032;-85
2022/06/08 03:27:16;;;;;;;11.85;11.15;;;17.70;88.60;;;;;;5028614;28;20037;-84
2022/06/08 03:29:42;;;;;;;12.00;11.40;;;17.70;88.50;;;;;;5028806;28;20025;-84
2022/06/08 03:32:09;;;;;;;12.82;12.10;;;17.70;88.50;;;;;;5033599;28;20033;-84
2022/06/08 03:34:36;;;;;;;13.10;12.15;;;17.70;88.90;;;;;;5050698;28;20033;-84
2022/06/08 03:37:02;;;;;;;13.35;12.45;;;17.70;88.80;;;;;;5035287;28;20025;-84
2022/06/08 03:39:28;;;;;;;14.13;13.27;;;17.70;89.00;;;;;;5034245;28;20025;-84
2022/06/08 03:41:54;;;;;;;13.88;12.95;;;17.70;89.30;;;;;;5044772;28;20033;-84
2022/06/08 03:44:20;;;;;;;13.73;12.95;;;17.70;89.10;;;;;;5045073;28;20039;-84
2022/06/08 03:46:52;;;;;;;14.18;13.45;;;17.70;89.30;;;;;;5047926;28;20037;-84
2022/06/08 03:49:18;;;;;;;14.45;13.65;;;17.80;88.70;;;;;;5033588;28;20380;-83
2022/06/08 03:51:45;;;;;;;13.75;13.05;;;17.90;88.20;;;;;;5035297;28;20491;-83
2022/06/08 03:54:19;;;;;;;14.30;13.52;;;17.90;88.10;;;;;;5028266;28;20044;-84
2022/06/08 03:56:48;;;;;;;14.27;13.48;;;17.90;87.80;;;;;;5029047;28;20459;-84
2022/06/08 03:59:14;;;;;;;14.32;13.52;;;18.00;88.00;;;;;;5018972;28;20040;-84
2022/06/08 04:01:40;;;;;;;14.25;13.55;;;18.00;88.10;;;;;;5032069;28;20391;-84
2022/06/08 04:04:06;;;;;;;14.82;13.85;;;17.90;88.00;;;;;;5034891;28;20037;-84
2022/06/08 04:06:33;;;;;;;14.13;13.10;;;18.00;87.90;;;;;;5033805;28;20029;-83
2022/06/08 04:08:59;;;;;;;13.52;12.82;;;18.00;88.00;;;;;;5015270;28;20057;-83
2022/06/08 04:11:25;;;;;;;14.45;13.70;;;18.00;88.10;;;;;;5027827;28;20029;-83
2022/06/08 04:13:51;;;;;;;14.77;13.98;;;18.00;88.20;;;;;;5049844;28;20478;-83
2022/06/08 04:16:17;;;;;;;14.35;13.60;;;18.00;88.40;;;;;;5032434;28;20044;-84
2022/06/08 04:18:43;;;;;;;13.07;12.35;;;18.00;88.40;;;;;;5034858;28;20411;-83
2022/06/08 04:21:10;;;;;;;14.02;13.13;;;18.10;87.60;;;;;;5048172;28;20029;-83
2022/06/08 04:23:36;;;;;;;12.57;11.68;;;18.10;87.60;;;;;;5044241;28;20848;-84
2022/06/08 04:26:03;;;;;;;12.05;11.38;;;18.20;87.10;;;;;;5027737;28;20029;-83
2022/06/08 04:28:29;;;;;;;11.75;10.65;;;18.20;87.30;;;;;;5031698;28;20470;-83
2022/06/08 04:30:55;;;;;;;11.35;10.70;;;18.20;87.40;;;;;;5051112;28;20029;-83
2022/06/08 04:33:21;;;;;;;11.45;10.77;;;18.20;87.50;;;;;;5049152;28;20092;-83
2022/06/08 04:35:48;;;;;;;12.75;12.05;;;18.20;87.60;;;;;;5030775;28;20048;-83
2022/06/08 04:38:14;;;;;;;11.27;10.68;;;18.20;87.70;;;;;;5042542;28;20448;-83
2022/06/08 04:40:40;;;;;;;11.07;10.35;;;18.20;87.60;;;;;;5016963;28;20037;-83
2022/06/08 04:43:07;;;;;;;10.75;10.15;;;18.30;87.00;;;;;;5034116;28;20041;-83
2022/06/08 04:45:35;;;;;;;10.85;10.30;;;18.30;86.80;;;;;;5032772;28;20040;-83
2022/06/08 04:48:02;;;;;;;11.02;10.32;;;18.30;87.60;;;;;;5027523;28;20029;-83
2022/06/08 04:50:28;;;;;;;11.95;11.10;;;18.20;87.40;;;;;;5049174;28;20032;-83
2022/06/08 04:52:54;;;;;;;12.82;12.00;;;18.30;86.90;;;;;;5043929;28;20032;-83
2022/06/08 04:55:22;;;;;;;13.07;12.38;;;18.20;87.30;;;;;;5048428;28;20388;-83
2022/06/08 04:57:49;;;;;;;12.80;12.00;;;18.20;87.30;;;;;;5047452;28;20368;-84
2022/06/08 05:00:20;;;;;;;13.05;12.25;;;18.20;87.80;;;;;;5033140;28;20043;-83
2022/06/08 05:02:49;;;;;;;13.18;12.40;;;18.10;88.60;;;;;;5018357;28;20061;-83
2022/06/08 05:05:20;;;;;;;13.25;12.20;;;17.90;88.80;;;;;;5027157;28;20056;-83
2022/06/08 05:07:47;;;;;;;14.00;13.23;;;18.00;88.90;;;;;;5047995;28;20461;-83
2022/06/08 05:10:13;;;;;;;13.88;12.88;;;17.90;89.40;;;;;;5032747;28;20067;-83
2022/06/08 05:12:40;;;;;;;13.90;12.93;;;17.90;89.50;;;;;;5033519;28;20530;-83
2022/06/08 05:15:12;;;;;;;14.07;13.05;;;17.90;89.40;;;;;;5013191;28;20052;-83
2022/06/08 05:17:38;;;;;;;14.07;12.93;;;17.80;89.60;;;;;;5028315;28;20055;-84
2022/06/08 05:20:05;;;;;;;13.88;12.88;;;17.90;89.70;;;;;;5016972;28;20060;-84
2022/06/08 05:22:31;;;;;;;14.43;13.32;;;18.00;89.90;;;;;;5047456;28;20369;-83
2022/06/08 05:24:57;;;;;;;15.30;13.88;;;18.20;90.10;;;;;;5031069;28;20052;-84
2022/06/08 05:27:23;;;;;;;12.43;11.60;;;18.40;89.10;;;;;;5031762;28;20044;-84
2022/06/08 05:29:49;;;;;;;16.90;15.57;;;18.60;88.60;;;;;;5026539;28;20033;-83
2022/06/08 05:32:15;;;;;;;16.52;15.43;;;18.70;87.70;;;;;;5025908;28;20538;-84
2022/06/08 05:34:41;;;;;;;17.95;16.90;;;18.80;87.00;;;;;;5047032;28;20469;-84
2022/06/08 05:37:08;;;;;;;12.57;11.77;;;18.90;86.60;;;;;;5032920;28;20033;-84
2022/06/08 05:39:34;;;;;;;12.05;10.93;;;19.00;86.40;;;;;;5049647;28;20032;-84
2022/06/08 05:42:00;;;;;;;9.52;8.93;;;19.10;86.10;;;;;;5042858;28;20498;-84
2022/06/08 05:44:26;;;;;;;9.25;8.30;;;19.20;86.20;;;;;;5038825;28;20056;-84
2022/06/08 05:46:53;;;;;;;9.52;8.60;;;19.40;85.60;;;;;;5018150;28;20392;-84
2022/06/08 05:49:19;;;;;;;9.85;8.82;;;19.60;85.40;;;;;;5047690;28;20475;-84
2022/06/08 05:51:46;;;;;;;10.43;9.55;;;19.70;84.10;;;;;;5050279;28;20029;-85
2022/06/08 05:54:12;;;;;;;9.38;8.63;;;19.90;84.10;;;;;;5042915;28;20036;-85
2022/06/08 05:56:40;;;;;;;11.13;9.35;;;20.10;82.70;;;;;;5042647;28;20040;-84
2022/06/08 05:59:06;;;;;;;11.20;10.40;;;20.20;81.90;;;;;;5048046;28;20017;-84
2022/06/08 06:01:33;;;;;;;12.90;10.65;;;20.20;81.50;;;;;;5029421;28;20419;-84
2022/06/08 06:04:05;;;;;;;11.73;10.70;;;20.30;81.30;;;;;;5032674;28;20426;-84
2022/06/08 06:06:31;;;;;;;11.55;10.68;;;20.20;80.30;;;;;;5027602;28;20036;-84
2022/06/08 06:08:58;;;;;;;11.25;10.25;;;20.20;80.20;;;;;;5031513;28;20041;-84
2022/06/08 06:11:24;;;;;;;10.95;10.05;;;20.20;80.20;;;;;;5047596;28;20020;-84
2022/06/08 06:13:50;;;;;;;11.23;10.25;;;20.20;79.90;;;;;;5047788;28;20025;-84
2022/06/08 06:16:16;;;;;;;10.98;10.13;;;20.10;80.10;;;;;;5047903;28;20053;-84
2022/06/08 06:18:42;;;;;;;11.30;10.43;;;20.00;80.20;;;;;;5049286;28;20036;-84
2022/06/08 06:21:25;;;;;;;10.25;9.50;;;20.00;80.20;;;;;;5047686;28;20036;-84
2022/06/08 06:23:55;;;;;;;10.85;10.05;;;20.00;80.10;;;;;;5042017;28;20386;-84
2022/06/08 06:26:21;;;;;;;10.83;10.20;;;19.80;80.30;;;;;;5012687;28;20109;-84
2022/06/08 06:28:47;;;;;;;10.77;9.98;;;19.90;80.30;;;;;;5015972;28;20395;-84
2022/06/08 06:31:18;;;;;;;12.88;10.52;;;19.70;80.20;;;;;;5044742;28;20041;-84
2022/06/08 06:33:44;;;;;;;;;;;19.60;80.80;;;;;;5049832;28;20028;-83
2022/06/08 06:36:10;;;;;;;10.27;9.02;;;19.60;81.00;;;;;;5028600;28;19944;-84
2022/06/08 06:38:36;;;;;;;18.08;16.73;;;19.40;81.30;;;;;;5006922;28;20056;-84
2022/06/08 06:41:02;;;;;;;14.88;12.50;;;19.40;81.40;;;;;;5037030;28;20032;-83
2022/06/08 06:43:28;;;;;;;24.88;23.48;;;19.30;81.40;;;;;;5029869;28;20045;-84
2022/06/08 06:45:54;;;;;;;24.88;23.23;;;19.20;82.40;;;;;;5049609;28;20073;-84
2022/06/08 06:48:20;;;;;;;28.90;26.90;;;19.00;82.70;;;;;;5048198;28;20479;-84
2022/06/08 06:50:46;;;;;;;26.80;25.13;;;18.80;83.50;;;;;;5046807;28;20044;-84
2022/06/08 06:53:13;;;;;;;25.88;24.05;;;18.80;83.60;;;;;;5025035;28;20034;-84
2022/06/08 06:55:39;;;;;;;31.52;29.20;;;18.90;83.10;;;;;;5045611;28;20044;-84
2022/06/08 06:58:06;;;;;;;32.75;30.42;;;18.80;82.70;;;;;;5031870;28;20028;-83
2022/06/08 07:00:33;;;;;;;25.83;23.77;;;18.90;82.80;;;;;;5028532;28;20068;-83
2022/06/08 07:02:59;;;;;;;33.03;31.02;;;18.80;83.30;;;;;;5045793;28;20104;-83
2022/06/08 07:05:29;;;;;;;24.63;23.08;;;18.70;82.70;;;;;;5028605;28;20053;-84
2022/06/08 07:07:55;;;;;;;31.65;29.52;;;18.70;83.30;;;;;;5037325;28;20025;-84
2022/06/08 07:10:21;;;;;;;19.02;17.42;;;18.80;83.30;;;;;;5013245;28;20044;-84
2022/06/08 07:12:47;;;;;;;17.05;15.55;;;18.90;82.60;;;;;;5050337;28;20024;-84
2022/06/08 07:15:14;;;;;;;12.18;11.18;;;19.00;82.30;;;;;;5040490;28;20514;-84
2022/06/08 07:17:40;;;;;;;11.32;10.23;;;19.00;82.50;;;;;;5024971;28;20028;-84
2022/06/08 07:20:07;;;;;;;11.63;10.55;;;19.10;81.50;;;;;;5024765;28;20052;-84
2022/06/08 07:22:33;;;;;;;11.88;9.50;;;19.10;81.00;;;;;;5045828;28;20038;-83
2022/06/08 07:25:00;;;;;;;11.90;10.90;;;18.90;81.00;;;;;;5028651;28;20056;-84
2022/06/08 07:27:27;;;;;;;22.08;20.13;;;18.90;81.80;;;;;;5012742;28;20665;-84
2022/06/08 07:29:53;;;;;;;19.30;17.92;;;19.00;82.20;;;;;;5031784;28;20040;-84
2022/06/08 07:32:20;;;;;;;12.90;11.75;;;19.10;81.70;;;;;;5040667;28;20039;-84
2022/06/08 07:34:46;;;;;;;13.32;10.77;;;19.20;81.40;;;;;;5015293;28;20372;-84
2022/06/08 07:37:12;;;;;;;23.48;11.45;;;19.20;80.40;;;;;;5013522;28;20044;-84
2022/06/08 07:39:38;;;;;;;26.23;11.48;;;19.20;80.90;;;;;;5027848;28;20057;-84
2022/06/08 07:42:05;;;;;;;15.27;13.73;;;19.10;80.80;;;;;;5023683;28;20041;-84
2022/06/08 07:44:31;;;;;;;11.77;10.68;;;19.20;81.60;;;;;;5038721;28;20045;-84
2022/06/08 07:46:57;;;;;;;10.63;9.70;;;19.20;80.90;;;;;;5024106;28;20045;-84
2022/06/08 07:49:39;;;;;;;11.93;10.77;;;19.40;80.80;;;;;;5028569;28;20037;-84
2022/06/08 07:52:13;;;;;;;11.50;10.35;;;19.50;81.00;;;;;;5047043;28;20382;-85
2022/06/08 07:54:40;;;;;;;12.00;9.27;;;19.70;79.20;;;;;;5031418;28;20039;-85
2022/06/08 07:57:06;;;;;;;22.63;12.00;;;19.80;79.00;;;;;;5041073;28;20021;-84
2022/06/08 07:59:34;;;;;;;11.95;10.85;;;19.80;76.20;;;;;;5011380;28;20046;-85
2022/06/08 08:02:01;;;;;;;13.15;11.93;;;19.80;77.10;;;;;;5020800;28;20032;-85
2022/06/08 08:04:27;;;;;;;11.73;10.70;;;19.90;77.00;;;;;;5016166;28;20383;-85
2022/06/08 08:06:53;;;;;;;15.52;10.73;;;20.10;76.30;;;;;;5052541;28;20032;-85
2022/06/08 08:09:22;;;;;;;10.93;9.82;;;20.30;76.20;;;;;;5052065;28;20044;-86
2022/06/08 08:11:52;;;;;;;11.75;10.77;;;20.70;74.60;;;;;;5044141;28;20498;-81
2022/06/08 08:14:19;;;;;;;13.17;10.27;;;20.90;71.90;;;;;;5044446;28;20041;-86
2022/06/08 08:16:45;;;;;;;12.32;11.15;;;21.00;72.80;;;;;;5048508;28;20272;-85
2022/06/08 08:19:12;;;;;;;11.85;10.98;;;20.90;71.70;;;;;;5033828;28;20032;-85
2022/06/08 08:21:38;;;;;;;11.82;10.85;;;20.90;71.20;;;;;;5052230;28;20372;-85
2022/06/08 08:24:05;;;;;;;13.43;12.25;;;20.60;70.50;;;;;;5044236;28;20498;-85
2022/06/08 08:26:31;;;;;;;11.85;10.85;;;20.60;71.40;;;;;;5043798;28;20033;-85
2022/06/08 08:28:57;;;;;;;12.07;11.07;;;20.50;72.20;;;;;;5049929;28;20025;-85
2022/06/08 08:31:23;;;;;;;13.25;12.02;;;20.60;71.40;;;;;;5031741;28;20562;-85
2022/06/08 08:33:49;;;;;;;51.10;16.45;;;20.60;70.80;;;;;;5011203;28;20064;-85
2022/06/08 08:36:17;;;;;;;12.10;11.10;;;20.60;69.50;;;;;;5049411;28;20025;-85
2022/06/08 08:38:44;;;;;;;11.70;10.70;;;20.60;71.50;;;;;;5018492;28;20044;-84
2022/06/08 08:42:20;;;;;;;12.70;11.50;;;20.70;71.60;;;;;;5026819;28;20030;-84
2022/06/08 08:44:00;;;;;;;13.70;12.13;;;20.50;70.30;;;;;;5034734;28;20057;-84
2022/06/08 08:46:49;;;;;;;11.63;10.73;;;20.40;70.90;;;;;;5047890;28;20033;-84
2022/06/08 08:49:19;;;;;;;11.13;10.13;;;20.40;70.90;;;;;;5049564;28;20368;-84
2022/06/08 08:51:52;;;;;;;11.77;10.70;;;20.30;71.60;;;;;;5051333;28;20029;-84
2022/06/08 08:54:24;;;;;;;11.57;10.68;;;20.30;71.10;;;;;;5028643;28;20036;-84
2022/06/08 08:56:51;;;;;;;12.13;10.90;;;20.30;71.50;;;;;;5043526;28;20087;-84
2022/06/08 08:59:19;;;;;;;12.68;11.57;;;20.30;71.10;;;;;;5027468;28;20028;-84
2022/06/08 09:01:47;;;;;;;11.98;11.02;;;20.40;69.60;;;;;;5016964;28;20040;-84
2022/06/08 09:04:23;;;;;;;12.07;10.98;;;20.40;70.00;;;;;;5032989;28;20056;-84
2022/06/08 09:06:49;;;;;;;12.20;11.00;;;20.40;70.70;;;;;;5051415;28;20037;-84
2022/06/08 09:09:19;;;;;;;11.77;10.85;;;20.30;70.00;;;;;;5043590;28;20487;-84
2022/06/08 09:11:45;;;;;;;13.68;10.93;;;20.40;69.80;;;;;;5016155;28;20045;-85
2022/06/08 09:14:13;;;;;;;11.93;10.68;;;20.40;70.80;;;;;;5026779;28;20495;-85
2022/06/08 09:16:41;;;;;;;12.90;10.55;;;20.40;71.50;;;;;;5048838;28;20041;-85
2022/06/08 09:19:40;;;;;;;12.40;11.10;;;20.40;70.40;;;;;;5033430;28;20037;-85
2022/06/08 09:22:06;;;;;;;11.27;10.48;;;20.40;69.50;;;;;;5035227;28;20041;-84
2022/06/08 09:24:47;;;;;;;11.77;10.88;;;20.30;69.90;;;;;;5052136;28;20041;-84
2022/06/08 09:27:25;;;;;;;12.52;11.40;;;20.20;68.50;;;;;;5043191;28;20025;-85
2022/06/08 09:29:54;;;;;;;12.07;11.00;;;20.00;68.50;;;;;;5048565;28;20459;-84
2022/06/08 09:32:26;;;;;;;11.32;10.52;;;19.90;67.40;;;;;;5044094;28;20041;-85
2022/06/08 09:34:54;;;;;;;11.30;10.45;;;19.90;68.10;;;;;;5049051;28;20036;-85
2022/06/08 09:37:21;;;;;;;11.48;10.43;;;19.90;68.50;;;;;;5031408;28;20032;-84
2022/06/08 09:39:47;;;;;;;13.15;11.75;;;20.00;68.90;;;;;;5050350;28;20498;-84
2022/06/08 09:42:23;;;;;;;11.80;9.73;;;20.00;67.40;;;;;;5048526;28;20100;-84
2022/06/08 09:44:58;;;;;;;12.10;11.00;;;20.00;68.70;;;;;;5042781;28;20410;-84
2022/06/08 09:54:01;;;;;;;11.60;10.68;;;20.40;67.90;;;;;;5032168;28;20048;-84
2022/06/08 09:56:59;;;;;;;13.50;12.38;;;20.50;68.30;;;;;;5048192;28;20438;-84
2022/06/08 09:59:44;;;;;;;13.50;12.50;;;20.70;66.80;;;;;;5042396;28;20134;-85
2022/06/08 10:02:20;;;;;;;14.90;13.60;;;20.90;66.60;;;;;;5047369;28;20030;-84
2022/06/08 10:05:18;;;;;;;15.60;14.60;;;21.10;66.50;;;;;;5031207;28;20037;-85
2022/06/08 10:07:59;;;;;;;14.57;13.30;;;21.50;63.90;;;;;;5034103;28;20029;-84
2022/06/08 10:10:31;;;;;;;14.40;13.25;;;21.80;63.30;;;;;;5032489;28;20055;-85
2022/06/08 10:13:01;;;;;;;14.88;13.57;;;21.80;60.50;;;;;;5049442;28;20032;-85
2022/06/08 10:15:48;;;;;;;15.35;14.13;;;21.70;60.90;;;;;;5026952;28;20399;-85
2022/06/08 10:18:33;;;;;;;17.05;15.75;;;21.70;61.40;;;;;;5049078;28;20029;-85
2022/06/08 10:21:18;;;;;;;14.63;13.73;;;21.90;61.90;;;;;;5047517;28;20360;-85
2022/06/08 10:23:56;;;;;;;17.83;16.48;;;22.20;58.50;;;;;;5041555;28;20045;-85
2022/06/08 10:26:35;;;;;;;17.63;16.33;;;22.20;57.80;;;;;;5012916;28;20037;-85
2022/06/08 10:29:14;;;;;;;17.17;15.90;;;22.20;57.30;;;;;;5022126;28;20502;-85
2022/06/08 10:32:10;;;;;;;17.23;15.95;;;22.00;57.00;;;;;;5032230;28;20506;-85
2022/06/08 10:34:37;;;;;;;17.83;16.40;;;21.90;56.50;;;;;;5033853;28;20032;-85
2022/06/08 10:37:19;;;;;;;17.58;16.38;;;21.60;57.70;;;;;;5049430;28;20033;-85
2022/06/08 10:39:46;;;;;;;16.45;15.35;;;21.40;58.30;;;;;;5016622;28;20037;-85
2022/06/08 10:44:58;;;;;;;17.83;16.45;;;21.00;58.20;;;;;;5048319;28;20052;-84
2022/06/08 10:47:32;;;;;;;17.83;16.38;;;21.00;59.20;;;;;;5024987;28;20029;-85
2022/06/08 10:50:16;;;;;;;18.25;16.52;;;20.90;58.80;;;;;;5026270;28;20395;-84
2022/06/08 10:52:49;;;;;;;15.52;14.05;;;20.80;59.60;;;;;;5045654;28;20022;-84
2022/06/08 10:55:17;;;;;;;15.43;14.13;;;20.80;59.80;;;;;;5030823;28;20033;-84
2022/06/08 10:57:50;;;;;;;15.10;14.00;;;20.90;60.60;;;;;;5049481;28;20047;-84
2022/06/08 11:00:19;;;;;;;16.75;15.63;;;21.00;60.50;;;;;;5029417;28;20045;-84
2022/06/08 11:03:03;;;;;;;15.93;14.82;;;21.10;60.20;;;;;;5042905;28;20033;-85
2022/06/08 11:05:43;;;;;;;15.38;14.18;;;21.20;59.10;;;;;;5047066;28;20040;-85
2022/06/08 11:08:18;;;;;;;16.00;14.63;;;21.30;59.70;;;;;;5024824;28;20014;-85
2022/06/08 11:10:44;;;;;;;15.02;13.77;;;21.40;59.60;;;;;;5048119;28;20411;-85
2022/06/08 11:13:22;;;;;;;18.50;17.30;;;21.60;59.20;;;;;;5048732;28;20033;-85
2022/06/08 11:15:56;;;;;;;18.05;16.65;;;21.70;59.30;;;;;;5041337;28;20042;-85
2022/06/08 11:18:30;;;;;;;18.27;16.90;;;21.80;59.20;;;;;;5048817;28;20040;-85
2022/06/08 11:21:15;;;;;;;18.25;17.10;;;21.80;59.00;;;;;;5040817;28;20460;-85
2022/06/08 11:23:52;;;;;;;19.90;18.40;;;21.90;59.20;;;;;;5046769;28;20037;-84
2022/06/08 11:26:23;;;;;;;16.98;15.68;;;22.10;60.00;;;;;;5041403;28;20028;-84
2022/06/08 11:28:53;;;;;;;18.33;17.13;;;22.10;58.90;;;;;;5048433;28;20033;-85
2022/06/08 11:31:26;;;;;;;19.90;18.58;;;22.20;58.40;;;;;;5029466;28;20040;-84
2022/06/08 11:33:59;;;;;;;21.48;19.90;;;22.20;59.70;;;;;;5046469;28;20040;-85
2022/06/08 11:36:43;;;;;;;20.05;18.70;;;22.40;56.70;;;;;;5030938;28;20506;-84
2022/06/08 11:39:46;;;;;;;22.15;20.20;;;22.40;55.00;;;;;;5048959;28;20040;-84
2022/06/08 11:42:22;;;;;;;21.02;19.67;;;22.40;54.50;;;;;;5050713;28;20041;-85
2022/06/08 11:44:57;;;;;;;20.58;19.13;;;22.60;54.80;;;;;;5035743;28;20041;-85
2022/06/08 11:47:37;;;;;;;19.27;17.88;;;22.80;54.40;;;;;;5028689;28;20379;-84
2022/06/08 11:50:26;;;;;;;21.73;20.30;;;23.10;54.00;;;;;;5044630;28;20028;-85
2022/06/08 11:53:05;;;;;;;22.20;20.70;;;23.40;52.10;;;;;;5050578;28;20383;-85
2022/06/08 11:55:42;;;;;;;20.67;19.42;;;23.60;53.20;;;;;;5018778;28;20025;-84
2022/06/08 11:58:10;;;;;;;22.33;20.77;;;23.70;52.00;;;;;;5035911;28;20025;-84
2022/06/08 12:00:55;;;;;;;21.05;19.70;;;23.90;51.00;;;;;;5050887;28;20492;-85
2022/06/08 12:03:38;;;;;;;26.67;24.92;;;24.00;52.00;;;;;;5031614;28;20055;-84
2022/06/08 12:06:08;;;;;;;20.65;19.27;;;24.10;51.50;;;;;;5029606;28;20040;-85
2022/06/08 12:08:57;;;;;;;21.15;19.60;;;24.30;50.80;;;;;;5050031;28;20028;-85
2022/06/08 12:11:25;;;;;;;21.88;20.42;;;24.20;50.50;;;;;;4988649;28;20564;-85
2022/06/08 12:14:01;;;;;;;25.17;23.30;;;24.40;52.00;;;;;;4954067;28;20038;-85
2022/06/08 12:16:33;;;;;;;20.60;19.08;;;24.60;50.00;;;;;;4958755;28;20043;-86
2022/06/08 12:19:15;;;;;;;22.20;20.67;;;24.60;48.80;;;;;;4971531;28;20034;-86
2022/06/08 12:21:43;;;;;;;30.92;29.00;;;24.60;48.30;;;;;;4991296;28;20033;-85
2022/06/08 12:24:12;;;;;;;28.92;26.35;;;24.50;49.80;;;;;;4963120;28;20059;-85
2022/06/08 12:27:00;;;;;;;20.58;19.02;;;24.40;49.70;;;;;;4988466;28;20049;-86
2022/06/08 12:29:32;;;;;;;21.73;20.13;;;24.20;50.40;;;;;;4974871;28;20386;-85
2022/06/08 12:32:19;;;;;;;20.88;19.33;;;24.10;50.10;;;;;;4974731;28;20389;-86
2022/06/08 12:35:11;;;;;;;20.50;18.95;;;24.00;51.10;;;;;;4929066;29;20034;-85
2022/06/08 12:37:44;;;;;;;19.63;18.48;;;24.10;51.50;;;;;;4908724;29;20040;-85
2022/06/08 12:40:15;;;;;;;20.50;18.77;;;24.30;51.50;;;;;;4918851;29;20047;-85
2022/06/08 12:42:57;;;;;;;20.15;18.60;;;24.60;50.60;;;;;;4937947;29;20384;-85
2022/06/08 12:45:34;;;;;;;20.85;19.42;;;24.80;50.10;;;;;;4922563;29;20044;-85
2022/06/08 12:48:16;;;;;;;21.30;19.85;;;24.90;48.40;;;;;;4942209;28;20061;-86
2022/06/08 12:50:42;;;;;;;20.20;18.92;;;24.90;49.40;;;;;;4979568;28;20026;-85
2022/06/08 12:53:08;;;;;;;19.60;17.95;;;24.90;47.90;;;;;;4977697;28;20041;-85
2022/06/08 12:55:36;;;;;;;22.55;20.95;;;24.90;47.40;;;;;;4993817;28;20037;-85
2022/06/08 12:58:03;;;;;;;23.13;21.55;;;25.00;48.70;;;;;;4994047;28;20081;-85
2022/06/08 13:00:30;;;;;;;20.77;19.40;;;25.00;47.90;;;;;;5009662;28;20503;-85